ESMH weather

Höganäs Airport
Höganäs, Skåne län, Sweden

Public forecast

Using degrees Celsius for public forecast. Weather courtesy of forecast.io.

Closest aviation weather report (METAR) to Höganäs Airport

Closest report is Ängelholm-Helsingborg Airport, 11.2 nm (20.8 km) NE. Retrieved 2020/01/29 14:20 UTC (26 seconds ago):

ESTA 291420Z 28013KT 9999 -RA FEW006 SCT018 BKN024 05/03 Q0992

Closest aviation forecast (TAF) to Höganäs Airport

Forecast is more than 12 hours old.

Closest forecast is Ljungbyhed Airport, 22.2 nm (41.0 km) ESE. Retrieved 2016/03/01 09:33 UTC (4 years ago):

TAF ESTL 010830Z 0109/0124 14004KT 9999 SCT025